createdAt,value
2017-09-24T00:01:58.033Z,96.40
2017-09-24T00:04:27.440Z,95.80
2017-09-24T00:06:56.413Z,96.10
2017-09-24T00:09:26.137Z,95.90
2017-09-24T00:11:55.525Z,95.80
2017-09-24T00:14:24.486Z,95.80
2017-09-24T00:16:53.491Z,95.80
2017-09-24T00:19:22.500Z,95.80
2017-09-24T00:21:52.345Z,95.80
2017-09-24T00:24:21.317Z,95.70
2017-09-24T00:26:50.670Z,95.70
2017-09-24T00:29:19.664Z,95.80
2017-09-24T00:31:48.728Z,95.70
2017-09-24T00:34:17.672Z,95.80
2017-09-24T00:36:46.713Z,95.70
2017-09-24T00:39:16.049Z,95.70
2017-09-24T00:41:45.050Z,95.60
2017-09-24T00:44:14.009Z,95.30
2017-09-24T00:46:43.096Z,95.20
2017-09-24T00:49:12.828Z,95.40
2017-09-24T00:51:41.792Z,95.40
2017-09-24T00:54:11.517Z,95.60
2017-09-24T00:56:40.935Z,95.40
2017-09-24T00:59:09.912Z,95.20
2017-09-24T01:01:38.875Z,95.50
2017-09-24T01:04:08.674Z,95.30
2017-09-24T01:06:38.418Z,95.70
2017-09-24T01:09:07.789Z,95.20
2017-09-24T01:11:36.772Z,95.20
2017-09-24T01:14:05.733Z,95.30
2017-09-24T01:16:34.692Z,95.50
2017-09-24T01:19:03.679Z,95.70
2017-09-24T01:21:32.650Z,95.60
2017-09-24T01:24:01.611Z,95.80
2017-09-24T01:26:30.598Z,95.50
2017-09-24T01:28:59.957Z,94.90
2017-09-24T01:31:29.708Z,95.20
2017-09-24T01:33:58.670Z,95.00
2017-09-24T01:36:27.746Z,95.10
2017-09-24T01:38:57.088Z,94.90
2017-09-24T01:41:26.070Z,94.80
2017-09-24T01:43:55.133Z,94.70
2017-09-24T01:46:25.048Z,94.70
2017-09-24T01:48:54.397Z,94.50
2017-09-24T01:51:23.760Z,94.70
2017-09-24T01:53:53.481Z,94.50
2017-09-24T01:56:22.476Z,94.50
2017-09-24T01:58:51.856Z,94.50
2017-09-24T02:01:21.594Z,95.00
2017-09-24T02:03:50.570Z,94.70
2017-09-24T02:06:20.306Z,94.60
2017-09-24T02:08:49.298Z,94.50
2017-09-24T02:11:19.053Z,94.20
2017-09-24T02:13:48.001Z,94.30
2017-09-24T02:16:17.776Z,94.70
2017-09-24T02:18:46.737Z,95.00
2017-09-24T02:21:15.749Z,94.90
2017-09-24T02:23:45.153Z,94.90
2017-09-24T02:26:14.497Z,94.90
2017-09-24T02:28:43.488Z,95.10
2017-09-24T02:31:12.897Z,94.80
2017-09-24T02:33:41.849Z,95.00
2017-09-24T02:36:10.816Z,95.00
2017-09-24T02:38:39.792Z,94.80
2017-09-24T02:41:08.797Z,95.00
2017-09-24T02:43:37.771Z,95.10
2017-09-24T02:46:06.780Z,95.40
2017-09-24T02:48:36.523Z,95.10
2017-09-24T02:51:05.497Z,95.40
2017-09-24T02:53:35.245Z,95.70
2017-09-24T02:56:04.232Z,95.60
2017-09-24T02:58:33.201Z,94.60
2017-09-24T03:01:02.959Z,95.00
2017-09-24T03:03:31.916Z,94.60
2017-09-24T03:06:00.876Z,94.70
2017-09-24T03:08:30.613Z,95.20
2017-09-24T03:10:59.595Z,95.20
2017-09-24T03:13:29.061Z,94.70
2017-09-24T03:15:58.064Z,94.70
2017-09-24T03:18:27.014Z,94.40
2017-09-24T03:20:56.275Z,94.70
2017-09-24T03:23:25.995Z,94.50
2017-09-24T03:25:54.998Z,94.20
2017-09-24T03:28:24.719Z,94.20
2017-09-24T03:30:53.685Z,94.50
2017-09-24T03:33:23.418Z,94.70
2017-09-24T03:35:53.188Z,95.20
2017-09-24T03:38:22.540Z,95.10
2017-09-24T03:40:51.493Z,95.20
2017-09-24T03:43:20.490Z,95.20
2017-09-24T03:45:50.225Z,95.20
2017-09-24T03:48:19.203Z,95.20
2017-09-24T03:50:48.951Z,94.70
2017-09-24T03:53:17.984Z,94.50
2017-09-24T03:55:47.776Z,95.10
2017-09-24T03:58:16.767Z,94.90
2017-09-24T04:00:45.783Z,95.20
2017-09-24T04:03:14.755Z,95.30
2017-09-24T04:05:43.701Z,95.60
2017-09-24T04:08:13.083Z,95.20
2017-09-24T04:10:42.045Z,95.30
2017-09-24T04:13:11.799Z,95.40
2017-09-24T04:15:40.770Z,95.30
2017-09-24T04:18:09.730Z,95.60
2017-09-24T04:20:38.680Z,95.20
2017-09-24T04:23:08.420Z,95.50
2017-09-24T04:25:37.777Z,95.30
2017-09-24T04:28:06.761Z,95.60
2017-09-24T04:30:35.715Z,95.60
2017-09-24T04:33:04.709Z,95.90
2017-09-24T04:35:33.672Z,95.70
2017-09-24T04:38:02.648Z,95.90
2017-09-24T04:40:31.620Z,95.70
2017-09-24T04:43:00.613Z,96.00
2017-09-24T04:45:29.572Z,95.40
2017-09-24T04:47:58.568Z,95.70
2017-09-24T04:50:28.305Z,95.50
2017-09-24T04:52:57.285Z,95.50
2017-09-24T04:55:27.055Z,95.50
2017-09-24T04:57:56.020Z,95.10
2017-09-24T05:00:25.810Z,95.30
2017-09-24T05:03:05.152Z,95.00
2017-09-24T05:05:34.153Z,95.30
2017-09-24T05:08:03.084Z,95.40
2017-09-24T05:10:32.056Z,95.40
2017-09-24T05:13:01.052Z,95.40
2017-09-24T05:15:30.037Z,95.50
2017-09-24T05:17:58.997Z,95.50
2017-09-24T05:20:28.072Z,95.50
2017-09-24T05:22:57.245Z,95.60
2017-09-24T05:25:26.219Z,95.90
2017-09-24T05:27:55.209Z,95.10
2017-09-24T05:30:24.187Z,95.80
2017-09-24T05:32:53.928Z,95.80
2017-09-24T05:35:22.920Z,95.60
2017-09-24T05:37:53.074Z,96.10
2017-09-24T05:40:22.054Z,96.00
2017-09-24T05:42:51.785Z,96.00
2017-09-24T05:45:20.759Z,95.70
2017-09-24T05:47:49.741Z,95.40
2017-09-24T05:50:18.737Z,95.30
2017-09-24T05:52:48.467Z,95.40
2017-09-24T05:55:20.285Z,95.20
2017-09-24T05:57:49.235Z,95.10
2017-09-24T06:00:18.187Z,95.10
2017-09-24T06:02:47.995Z,95.30
2017-09-24T06:05:17.308Z,95.30
2017-09-24T06:07:46.282Z,95.60
2017-09-24T06:10:16.041Z,95.50
2017-09-24T06:12:46.160Z,95.70
2017-09-24T06:15:15.152Z,95.30
2017-09-24T06:17:44.142Z,95.30
2017-09-24T06:20:13.204Z,95.30
2017-09-24T06:22:43.088Z,95.40
2017-09-24T06:25:12.081Z,95.70
2017-09-24T06:27:41.068Z,95.00
2017-09-24T06:30:10.031Z,95.00
2017-09-24T06:32:39.006Z,94.90
2017-09-24T06:35:08.008Z,95.10
2017-09-24T06:37:36.993Z,95.20
2017-09-24T06:40:06.015Z,95.40
2017-09-24T06:42:34.997Z,95.30
2017-09-24T06:45:03.948Z,95.70
2017-09-24T06:47:32.945Z,95.60
2017-09-24T06:50:01.911Z,95.60
2017-09-24T06:52:31.114Z,95.60
2017-09-24T06:55:00.869Z,95.60
2017-09-24T06:57:29.841Z,95.60
2017-09-24T06:59:58.794Z,95.40
2017-09-24T07:02:27.778Z,95.40
2017-09-24T07:04:56.731Z,95.30
2017-09-24T07:07:25.761Z,95.50
2017-09-24T07:09:56.264Z,95.20
2017-09-24T07:12:25.231Z,94.90
2017-09-24T07:14:54.189Z,94.70
2017-09-24T07:17:23.305Z,94.60
2017-09-24T07:19:53.015Z,94.70
2017-09-24T07:22:21.999Z,94.70
2017-09-24T07:24:50.989Z,94.60
2017-09-24T07:27:20.747Z,94.90
2017-09-24T07:29:49.715Z,94.10
2017-09-24T07:32:18.736Z,94.30
2017-09-24T07:34:47.719Z,93.60
2017-09-24T07:37:16.710Z,93.50
2017-09-24T07:39:45.660Z,93.80
2017-09-24T07:42:14.743Z,93.60
2017-09-24T07:44:44.504Z,93.90
2017-09-24T07:47:13.448Z,93.90
2017-09-24T07:49:43.208Z,94.40
2017-09-24T07:52:12.160Z,94.00
2017-09-24T07:54:41.144Z,94.10
2017-09-24T07:57:10.867Z,94.40
2017-09-24T07:59:39.842Z,94.00
2017-09-24T08:02:08.934Z,93.50
2017-09-24T08:04:38.309Z,93.80
2017-09-24T08:07:07.273Z,94.10
2017-09-24T08:09:36.268Z,92.20
2017-09-24T08:12:05.265Z,94.30
2017-09-24T08:14:34.252Z,94.30
2017-09-24T08:17:03.230Z,94.60
2017-09-24T08:19:32.196Z,93.80
2017-09-24T08:22:01.567Z,94.00
2017-09-24T08:24:30.997Z,94.20
2017-09-24T08:27:00.780Z,94.60
2017-09-24T08:29:29.964Z,94.10
2017-09-24T08:31:58.938Z,93.20
2017-09-24T08:34:27.917Z,93.60
2017-09-24T08:36:56.890Z,93.50
2017-09-24T08:39:26.285Z,92.00
2017-09-24T08:41:56.010Z,92.40
2017-09-24T08:44:25.174Z,90.90
2017-09-24T08:46:54.316Z,91.50
2017-09-24T08:49:23.442Z,91.70
2017-09-24T08:51:52.466Z,90.60
2017-09-24T08:54:22.216Z,90.80
2017-09-24T08:56:51.927Z,91.10
2017-09-24T08:59:20.920Z,90.20
2017-09-24T09:01:49.876Z,90.40
2017-09-24T09:04:18.868Z,89.00
2017-09-24T09:06:48.672Z,89.00
2017-09-24T09:09:18.456Z,89.10
2017-09-24T09:11:47.412Z,88.80
2017-09-24T09:14:16.399Z,88.10
2017-09-24T09:16:45.774Z,86.10
2017-09-24T09:19:14.740Z,85.70
2017-09-24T09:21:47.041Z,85.90
2017-09-24T09:24:16.803Z,86.00
2017-09-24T09:26:45.762Z,86.80
2017-09-24T09:29:14.760Z,85.40
2017-09-24T09:31:43.735Z,86.40
2017-09-24T09:34:24.479Z,87.00
2017-09-24T09:36:53.460Z,86.70
2017-09-24T09:39:22.451Z,83.40
2017-09-24T09:41:51.424Z,83.60
2017-09-24T09:44:32.140Z,84.70
2017-09-24T09:47:13.782Z,85.40
2017-09-24T09:49:42.829Z,85.60
2017-09-24T09:52:11.788Z,86.40
2017-09-24T09:54:40.759Z,84.20
2017-09-24T09:57:09.745Z,83.90
2017-09-24T09:59:38.720Z,82.80
2017-09-24T10:02:07.716Z,83.10
2017-09-24T10:04:36.693Z,80.20
2017-09-24T10:07:17.620Z,81.20
2017-09-24T10:09:59.157Z,80.70
2017-09-24T10:12:28.125Z,80.60
2017-09-24T10:14:57.136Z,80.70
2017-09-24T10:17:26.076Z,80.40
2017-09-24T10:19:55.076Z,81.30
2017-09-24T10:22:24.417Z,79.70
2017-09-24T10:24:53.396Z,78.70
2017-09-24T10:27:22.469Z,77.30
2017-09-24T10:30:17.327Z,76.80
2017-09-24T10:32:46.325Z,77.60
2017-09-24T10:35:15.288Z,75.70
2017-09-24T10:37:44.252Z,77.80
2017-09-24T10:40:14.053Z,75.90
2017-09-24T10:42:44.059Z,76.10
2017-09-24T10:45:13.934Z,76.90
2017-09-24T10:47:43.490Z,72.80
2017-09-24T10:50:13.067Z,70.50
2017-09-24T10:55:18.600Z,73.80
2017-09-24T10:57:47.724Z,73.70
2017-09-24T11:00:16.727Z,75.30
2017-09-24T11:02:46.201Z,77.90
2017-09-24T11:05:15.604Z,77.50
2017-09-24T11:07:44.728Z,80.30
2017-09-24T11:10:13.704Z,79.30
2017-09-24T11:12:43.315Z,78.60
2017-09-24T11:15:13.532Z,79.20
2017-09-24T11:17:42.473Z,75.00
2017-09-24T11:20:12.197Z,74.80
2017-09-24T11:22:41.148Z,72.90
2017-09-24T11:25:10.091Z,74.10
2017-09-24T11:27:39.070Z,74.30
2017-09-24T11:30:08.017Z,74.40
2017-09-24T11:32:37.384Z,76.90
2017-09-24T11:35:06.325Z,77.30
2017-09-24T11:37:36.051Z,77.10
2017-09-24T11:40:05.126Z,76.00
2017-09-24T11:42:34.072Z,77.80
2017-09-24T11:45:03.041Z,76.60
2017-09-24T11:47:32.013Z,75.40
2017-09-24T11:50:01.738Z,76.50
2017-09-24T11:52:30.719Z,76.50
2017-09-24T11:54:59.702Z,77.90
2017-09-24T11:57:29.438Z,76.50
2017-09-24T11:59:58.366Z,77.50
2017-09-24T12:02:27.340Z,76.80
2017-09-24T12:04:56.310Z,76.70
2017-09-24T12:07:25.303Z,77.40
2017-09-24T12:09:54.241Z,78.90
2017-09-24T12:12:23.230Z,79.70
2017-09-24T12:14:52.177Z,77.70
2017-09-24T12:17:21.945Z,77.70
2017-09-24T12:19:51.298Z,77.70
2017-09-24T12:22:20.284Z,80.80
2017-09-24T12:24:49.424Z,78.40
2017-09-24T12:27:18.424Z,79.10
2017-09-24T12:29:47.380Z,79.50
2017-09-24T12:32:16.364Z,80.40
2017-09-24T12:34:45.309Z,80.10
2017-09-24T12:37:15.169Z,81.50
2017-09-24T12:39:44.148Z,79.50
2017-09-24T12:42:13.152Z,81.20
2017-09-24T12:44:42.120Z,81.60
2017-09-24T12:47:11.112Z,82.30
2017-09-24T12:49:40.068Z,84.30
2017-09-24T12:52:09.074Z,82.30
2017-09-24T12:54:38.046Z,83.00
2017-09-24T12:57:07.050Z,83.00
2017-09-24T12:59:36.017Z,82.60
2017-09-24T13:02:05.125Z,83.10
2017-09-24T13:04:34.464Z,82.50
2017-09-24T13:07:03.549Z,83.60
2017-09-24T13:09:33.352Z,85.70
2017-09-24T13:12:03.069Z,85.00
2017-09-24T13:14:32.797Z,84.60
2017-09-24T13:17:01.746Z,84.80
2017-09-24T13:19:30.731Z,84.80
2017-09-24T13:21:59.698Z,85.50
2017-09-24T13:24:28.638Z,85.20
2017-09-24T13:26:57.653Z,87.20
2017-09-24T13:29:27.388Z,87.70
2017-09-24T13:31:56.338Z,87.20
2017-09-24T13:34:26.100Z,87.80
2017-09-24T13:36:55.188Z,87.70
2017-09-24T13:39:24.184Z,86.10
2017-09-24T13:41:53.126Z,86.60
2017-09-24T13:44:22.105Z,85.00
2017-09-24T13:46:51.081Z,85.80
2017-09-24T13:49:20.080Z,85.40
2017-09-24T13:51:49.028Z,85.50
2017-09-24T13:54:18.748Z,85.00
2017-09-24T13:56:47.713Z,86.00
2017-09-24T13:59:16.644Z,86.10
2017-09-24T14:01:45.608Z,86.40
2017-09-24T14:04:14.586Z,83.80
2017-09-24T14:06:44.336Z,84.30
2017-09-24T14:09:13.839Z,83.80
2017-09-24T14:11:43.604Z,84.90
2017-09-24T14:14:14.311Z,83.60
2017-09-24T14:16:44.331Z,83.40
2017-09-24T14:19:13.344Z,82.30
2017-09-24T14:21:43.771Z,84.60
2017-09-24T14:24:12.992Z,84.50
2017-09-24T14:26:42.035Z,84.20
2017-09-24T14:29:11.010Z,84.70
2017-09-24T14:31:40.067Z,86.60
2017-09-24T14:34:09.059Z,87.30
2017-09-24T14:36:38.076Z,87.40
2017-09-24T14:39:09.735Z,88.10
2017-09-24T14:41:38.742Z,88.70
2017-09-24T14:44:07.752Z,89.20
2017-09-24T14:46:36.746Z,89.50
2017-09-24T14:49:07.217Z,90.10
2017-09-24T14:51:37.287Z,90.30
2017-09-24T14:54:07.381Z,90.50
2017-09-24T14:56:37.578Z,90.90
2017-09-24T14:59:07.193Z,90.70
2017-09-24T15:01:36.680Z,90.60
2017-09-24T15:04:05.684Z,90.90
2017-09-24T15:06:34.679Z,91.20
2017-09-24T15:09:05.388Z,91.30
2017-09-24T15:11:34.430Z,90.90
2017-09-24T15:14:06.018Z,91.00
2017-09-24T15:16:35.469Z,91.40
2017-09-24T15:19:04.605Z,91.40
2017-09-24T15:21:34.492Z,91.30
2017-09-24T15:24:03.493Z,91.40
2017-09-24T15:26:32.586Z,91.40
2017-09-24T15:29:02.578Z,91.70
2017-09-24T15:31:31.665Z,91.60
2017-09-24T15:34:02.622Z,91.50
2017-09-24T15:36:32.990Z,91.80
2017-09-24T15:39:04.494Z,92.00
2017-09-24T15:41:33.565Z,92.10
2017-09-24T15:44:04.145Z,91.70
2017-09-24T15:46:33.217Z,92.20
2017-09-24T15:49:02.209Z,92.50
2017-09-24T15:51:31.469Z,92.20
2017-09-24T15:54:00.800Z,92.10
2017-09-24T15:56:30.751Z,92.40
2017-09-24T15:58:59.732Z,92.10
2017-09-24T16:01:30.469Z,92.70
2017-09-24T16:04:00.483Z,92.50
2017-09-24T16:06:29.946Z,92.40
2017-09-24T16:08:59.400Z,92.40
2017-09-24T16:11:28.517Z,92.60
2017-09-24T16:13:57.501Z,92.40
2017-09-24T16:16:27.291Z,92.50
2017-09-24T16:18:57.613Z,92.70
2017-09-24T16:21:27.919Z,92.70
2017-09-24T16:23:56.939Z,93.00
2017-09-24T16:26:26.692Z,93.40
2017-09-24T16:28:55.673Z,93.40
2017-09-24T16:31:24.629Z,93.30
2017-09-24T16:33:54.405Z,93.70
2017-09-24T16:36:23.385Z,93.60
2017-09-24T16:38:53.120Z,93.70
2017-09-24T16:41:22.121Z,93.80
2017-09-24T16:43:51.100Z,93.90
2017-09-24T16:46:20.053Z,94.30
2017-09-24T16:48:49.022Z,93.90
2017-09-24T16:51:18.820Z,94.50
2017-09-24T16:53:47.826Z,94.20
2017-09-24T16:56:17.542Z,94.60
2017-09-24T16:58:46.520Z,94.40
2017-09-24T17:01:15.502Z,94.70
2017-09-24T17:03:44.453Z,94.60
2017-09-24T17:06:13.449Z,94.70
2017-09-24T17:08:42.448Z,94.60
2017-09-24T17:11:11.408Z,94.80
2017-09-24T17:13:40.365Z,95.00
2017-09-24T17:16:10.121Z,95.50
2017-09-24T17:18:39.539Z,95.20
2017-09-24T17:21:08.518Z,95.20
2017-09-24T17:23:37.484Z,95.20
2017-09-24T17:26:06.468Z,95.10
2017-09-24T17:28:35.459Z,95.40
2017-09-24T17:31:04.928Z,95.40
2017-09-24T17:33:33.893Z,95.30
2017-09-24T17:36:02.882Z,95.70
2017-09-24T17:38:32.302Z,95.70
2017-09-24T17:41:01.282Z,95.60
2017-09-24T17:43:30.272Z,95.60
2017-09-24T17:45:59.310Z,95.70
2017-09-24T17:48:28.920Z,95.90
2017-09-24T17:50:58.684Z,96.10
2017-09-24T17:53:27.698Z,95.80
2017-09-24T17:55:56.705Z,95.80
2017-09-24T17:58:26.443Z,96.00
2017-09-24T18:00:55.867Z,95.90
2017-09-24T18:03:24.849Z,96.10
2017-09-24T18:05:53.852Z,96.10
2017-09-24T18:08:23.229Z,96.20
2017-09-24T18:10:53.219Z,96.30
2017-09-24T18:13:22.613Z,96.30
2017-09-24T18:15:51.640Z,96.20
2017-09-24T18:18:20.638Z,96.30
2017-09-24T18:20:50.441Z,96.50
2017-09-24T18:23:20.181Z,96.80
2017-09-24T18:25:49.185Z,96.50
2017-09-24T18:28:18.159Z,96.20
2017-09-24T18:30:47.159Z,96.50
2017-09-24T18:33:16.918Z,96.20
2017-09-24T18:35:45.977Z,96.20
2017-09-24T18:38:14.956Z,96.20
2017-09-24T18:40:43.986Z,96.20
2017-09-24T18:43:12.969Z,96.20
2017-09-24T18:45:41.990Z,96.20
2017-09-24T18:48:11.746Z,96.40
2017-09-24T18:50:41.674Z,96.20
2017-09-24T18:53:10.660Z,96.20
2017-09-24T18:55:39.660Z,96.40
2017-09-24T18:58:08.690Z,96.50
2017-09-24T19:00:38.514Z,96.80
2017-09-24T19:03:08.340Z,96.60
2017-09-24T19:05:37.353Z,96.80
2017-09-24T19:08:06.326Z,96.80
2017-09-24T19:10:35.350Z,96.80
2017-09-24T19:13:04.343Z,97.00
2017-09-24T19:15:33.663Z,97.30
2017-09-24T19:18:02.687Z,97.10
2017-09-24T19:20:31.694Z,97.30
2017-09-24T19:23:00.746Z,97.10
2017-09-24T19:25:29.735Z,97.40
2017-09-24T19:27:59.020Z,97.10
2017-09-24T19:30:28.044Z,97.20
2017-09-24T19:32:57.839Z,97.40
2017-09-24T19:35:27.265Z,97.10
2017-09-24T19:37:57.054Z,97.60
2017-09-24T19:40:26.033Z,97.20
2017-09-24T19:42:55.068Z,97.20
2017-09-24T19:45:24.091Z,97.00
2017-09-24T19:47:53.109Z,97.10
2017-09-24T19:50:22.095Z,97.40
2017-09-24T19:52:51.123Z,97.30
2017-09-24T19:55:20.875Z,97.70
2017-09-24T19:57:49.960Z,97.30
2017-09-24T20:00:18.957Z,97.40
2017-09-24T20:02:47.926Z,97.60
2017-09-24T20:05:16.926Z,97.50
2017-09-24T20:07:45.897Z,97.00
2017-09-24T20:10:15.780Z,97.40
2017-09-24T20:12:44.755Z,97.10
2017-09-24T20:15:14.964Z,97.20
2017-09-24T20:17:45.037Z,97.40
2017-09-24T20:20:14.016Z,97.00
2017-09-24T20:22:42.977Z,97.40
2017-09-24T20:25:11.998Z,97.30
2017-09-24T20:27:41.375Z,97.30
2017-09-24T20:30:11.123Z,97.40
2017-09-24T20:32:40.874Z,97.60
2017-09-24T20:35:10.241Z,97.20
2017-09-24T20:37:39.994Z,97.50
2017-09-24T20:40:09.350Z,97.30
2017-09-24T20:42:39.115Z,97.70
2017-09-24T20:45:08.083Z,97.50
2017-09-24T20:47:37.071Z,97.60
2017-09-24T20:50:06.030Z,97.30
2017-09-24T20:52:35.018Z,97.60
2017-09-24T20:55:03.976Z,97.20
2017-09-24T20:57:32.959Z,97.30
2017-09-24T21:00:01.933Z,97.60
2017-09-24T21:02:30.945Z,97.50
2017-09-24T21:04:59.910Z,97.40
2017-09-24T21:07:28.918Z,97.40
2017-09-24T21:09:57.908Z,97.30
2017-09-24T21:12:26.895Z,97.60
2017-09-24T21:14:56.265Z,97.30
2017-09-24T21:17:26.024Z,97.80
2017-09-24T21:19:55.071Z,97.50
2017-09-24T21:22:24.036Z,97.40
2017-09-24T21:24:52.996Z,97.80
2017-09-24T21:27:21.992Z,97.60
2017-09-24T21:29:50.948Z,97.90
2017-09-24T21:32:19.917Z,97.80
2017-09-24T21:34:48.871Z,97.70
2017-09-24T21:37:17.852Z,97.70
2017-09-24T21:39:46.808Z,97.60
2017-09-24T21:42:16.624Z,98.00
2017-09-24T21:44:45.580Z,97.60
2017-09-24T21:47:14.544Z,97.70
2017-09-24T21:49:43.538Z,97.70
2017-09-24T21:52:12.931Z,97.70
2017-09-24T21:54:41.901Z,97.80
2017-09-24T21:57:10.885Z,98.00
2017-09-24T21:59:40.603Z,98.30
2017-09-24T22:02:09.684Z,98.10
2017-09-24T22:04:38.661Z,98.00
2017-09-24T22:07:08.511Z,98.20
2017-09-24T22:09:37.438Z,98.00
2017-09-24T22:12:06.438Z,98.10
2017-09-24T22:14:35.401Z,98.10
2017-09-24T22:17:04.361Z,98.00
2017-09-24T22:19:34.315Z,98.30
2017-09-24T22:22:03.288Z,98.10
2017-09-24T22:24:32.272Z,98.10
2017-09-24T22:27:01.632Z,98.50
2017-09-24T22:29:31.031Z,98.70
2017-09-24T22:31:59.973Z,98.70
2017-09-24T22:34:28.956Z,98.60
2017-09-24T22:36:57.905Z,98.90
2017-09-24T22:39:26.912Z,98.50
2017-09-24T22:41:56.629Z,98.80
2017-09-24T22:44:26.382Z,98.20
2017-09-24T22:46:55.349Z,98.20
2017-09-24T22:49:24.324Z,98.20
2017-09-24T22:51:54.068Z,98.30
2017-09-24T22:54:23.141Z,97.90
2017-09-24T22:56:52.158Z,98.00
2017-09-24T22:59:21.131Z,98.10
2017-09-24T23:01:50.095Z,98.00
2017-09-24T23:04:19.858Z,98.30
2017-09-24T23:06:48.812Z,97.90
2017-09-24T23:09:17.767Z,98.00
2017-09-24T23:11:46.743Z,98.30
2017-09-24T23:14:15.725Z,98.30
2017-09-24T23:16:44.721Z,98.50
2017-09-24T23:19:13.704Z,98.40
2017-09-24T23:21:42.666Z,98.30
2017-09-24T23:24:11.632Z,98.30
2017-09-24T23:26:41.004Z,98.20
2017-09-24T23:29:09.984Z,98.10
2017-09-24T23:31:38.933Z,98.00
2017-09-24T23:34:08.684Z,98.30
2017-09-24T23:36:38.781Z,98.40
2017-09-24T23:39:08.547Z,98.00
2017-09-24T23:41:37.496Z,98.20
2017-09-24T23:44:06.500Z,98.00
2017-09-24T23:46:35.461Z,98.30
2017-09-24T23:49:04.833Z,98.10
2017-09-24T23:51:33.780Z,97.80
2017-09-24T23:54:02.744Z,97.80
2017-09-24T23:56:31.787Z,97.90
2017-09-24T23:59:00.773Z,97.70
